createdAt,value
2019-03-19T00:03:51.943Z,96.70
2019-03-19T00:08:55.673Z,96.60
2019-03-19T00:13:59.381Z,96.80
2019-03-19T00:19:10.033Z,96.90
2019-03-19T00:24:13.976Z,97.10
2019-03-19T00:29:17.950Z,97.40
2019-03-19T00:34:21.686Z,97.60
2019-03-19T00:39:25.385Z,97.80
2019-03-19T00:44:29.099Z,97.90
2019-03-19T00:49:32.837Z,98.00
2019-03-19T00:54:36.549Z,97.90
2019-03-19T00:59:40.523Z,98.10
2019-03-19T01:04:44.238Z,98.20
2019-03-19T01:09:48.305Z,98.30
2019-03-19T01:14:52.274Z,98.60
2019-03-19T01:19:56.262Z,98.60
2019-03-19T01:24:59.977Z,98.50
2019-03-19T01:30:03.942Z,98.30
2019-03-19T01:35:08.141Z,98.30
2019-03-19T01:40:12.034Z,98.40
2019-03-19T01:45:15.828Z,98.70
2019-03-19T01:50:19.779Z,99.10
2019-03-19T01:55:25.553Z,99.40
2019-03-19T02:00:28.920Z,99.20
2019-03-19T02:05:32.616Z,99.10
2019-03-19T02:10:36.402Z,99.10
2019-03-19T02:15:40.134Z,99.20
2019-03-19T02:20:44.090Z,99.40
2019-03-19T02:25:47.825Z,99.20
2019-03-19T02:30:51.851Z,99.10
2019-03-19T02:35:55.675Z,99.00
2019-03-19T02:40:59.372Z,99.30
2019-03-19T02:46:03.103Z,98.70
2019-03-19T02:51:06.813Z,98.50
2019-03-19T02:56:10.785Z,98.90
2019-03-19T03:01:14.875Z,98.40
2019-03-19T03:06:18.635Z,98.40
2019-03-19T03:11:22.392Z,98.40
2019-03-19T03:16:26.124Z,98.20
2019-03-19T03:21:29.830Z,98.40
2019-03-19T03:26:47.028Z,98.30
2019-03-19T03:31:39.350Z,98.10
2019-03-19T03:36:43.131Z,98.20
2019-03-19T03:41:47.095Z,98.10
2019-03-19T03:46:50.826Z,98.10
2019-03-19T03:51:54.622Z,98.40
2019-03-19T03:57:02.585Z,98.40
2019-03-19T04:02:10.208Z,98.40
2019-03-19T04:07:13.927Z,98.70
2019-03-19T04:12:17.649Z,98.80
2019-03-19T04:17:21.360Z,99.10
2019-03-19T04:22:25.082Z,99.10
2019-03-19T04:27:29.132Z,99.30
2019-03-19T04:32:32.911Z,99.30
2019-03-19T04:37:36.623Z,99.30
2019-03-19T04:42:40.407Z,99.40
2019-03-19T04:47:44.383Z,99.50
2019-03-19T04:52:48.363Z,99.70
2019-03-19T04:57:52.332Z,99.90
2019-03-19T05:03:00.191Z,99.90
2019-03-19T05:08:03.970Z,99.90
2019-03-19T05:13:07.692Z,99.90
2019-03-19T05:18:11.388Z,99.90
2019-03-19T05:23:15.345Z,99.90
2019-03-19T05:28:19.110Z,99.90
2019-03-19T05:33:22.840Z,99.90
2019-03-19T05:38:27.904Z,99.90
2019-03-19T05:43:31.614Z,99.90
2019-03-19T05:48:35.582Z,99.90
2019-03-19T05:53:41.367Z,99.90
2019-03-19T05:58:45.086Z,99.90
2019-03-19T06:03:48.804Z,99.90
2019-03-19T06:08:52.789Z,99.90
2019-03-19T06:13:56.823Z,99.90
2019-03-19T06:19:00.626Z,99.90
2019-03-19T06:24:04.402Z,99.90
2019-03-19T06:29:08.111Z,99.90
2019-03-19T06:34:11.826Z,99.90
2019-03-19T06:39:15.783Z,99.70
2019-03-19T06:44:19.742Z,98.60
2019-03-19T06:49:23.451Z,97.70
2019-03-19T06:54:27.151Z,96.90
2019-03-19T06:59:30.856Z,96.00
2019-03-19T07:04:34.555Z,96.70
2019-03-19T07:09:41.542Z,97.00
2019-03-19T07:14:45.516Z,96.80
2019-03-19T07:19:49.215Z,97.00
2019-03-19T07:24:52.926Z,96.60
2019-03-19T07:29:56.693Z,96.30
2019-03-19T07:35:00.435Z,96.50
2019-03-19T07:40:05.232Z,96.10
2019-03-19T07:45:11.624Z,96.10
2019-03-19T07:50:16.127Z,95.50
2019-03-19T07:55:19.836Z,95.40
2019-03-19T08:00:23.867Z,95.60
2019-03-19T08:05:33.053Z,95.30
2019-03-19T08:10:33.003Z,95.70
2019-03-19T08:15:36.698Z,95.70
2019-03-19T08:20:40.408Z,95.70
2019-03-19T08:25:44.378Z,95.60
2019-03-19T08:30:48.083Z,96.20
2019-03-19T08:35:51.798Z,94.70
2019-03-19T08:40:55.603Z,95.20
2019-03-19T08:45:59.404Z,94.20
2019-03-19T08:51:03.343Z,94.50
2019-03-19T08:56:07.060Z,94.20
2019-03-19T09:01:11.114Z,94.70
2019-03-19T09:06:14.821Z,93.90
2019-03-19T09:11:18.520Z,92.60
2019-03-19T09:16:22.473Z,91.60
2019-03-19T09:21:26.167Z,91.30
2019-03-19T09:26:29.894Z,90.20
2019-03-19T09:31:33.602Z,91.90
2019-03-19T09:36:37.314Z,90.80
2019-03-19T09:41:41.284Z,90.60
2019-03-19T09:46:45.004Z,90.80
2019-03-19T09:51:48.711Z,84.60
2019-03-19T09:56:57.447Z,83.50
2019-03-19T10:02:01.167Z,85.10
2019-03-19T10:07:06.340Z,85.40
2019-03-19T10:12:10.402Z,87.40
2019-03-19T10:17:14.191Z,86.70
2019-03-19T10:22:17.905Z,82.50
2019-03-19T10:27:21.612Z,85.50
2019-03-19T10:32:25.566Z,84.40
2019-03-19T10:37:29.299Z,81.50
2019-03-19T10:42:33.006Z,80.70
2019-03-19T10:47:36.706Z,78.20
2019-03-19T10:52:40.410Z,77.20
2019-03-19T10:57:44.259Z,82.70
2019-03-19T11:02:48.103Z,69.60
2019-03-19T11:07:51.888Z,74.20
2019-03-19T11:12:55.854Z,69.30
2019-03-19T11:17:59.808Z,68.90
2019-03-19T11:23:03.517Z,70.00
2019-03-19T11:28:08.038Z,62.20
2019-03-19T11:33:12.080Z,61.80
2019-03-19T11:38:16.052Z,57.00
2019-03-19T11:43:20.009Z,55.90
2019-03-19T11:48:23.711Z,56.10
2019-03-19T11:53:27.421Z,56.10
2019-03-19T11:58:31.120Z,56.10
2019-03-19T12:03:34.917Z,51.20
2019-03-19T12:08:38.888Z,47.20
2019-03-19T12:13:42.618Z,53.00
2019-03-19T12:18:46.352Z,50.20
2019-03-19T12:23:50.330Z,52.10
2019-03-19T12:28:54.028Z,50.40
2019-03-19T12:33:57.743Z,51.00
2019-03-19T12:39:01.715Z,54.40
2019-03-19T12:44:05.499Z,56.10
2019-03-19T12:49:09.460Z,58.70
2019-03-19T12:54:13.163Z,55.20
2019-03-19T12:59:20.469Z,57.60
2019-03-19T13:04:22.572Z,56.40
2019-03-19T13:09:26.346Z,48.30
2019-03-19T13:14:30.059Z,52.00
2019-03-19T13:19:33.759Z,57.40
2019-03-19T13:24:37.455Z,57.50
2019-03-19T13:29:41.151Z,57.80
2019-03-19T13:34:44.868Z,59.60
2019-03-19T13:39:48.568Z,60.40
2019-03-19T13:44:52.270Z,58.90
2019-03-19T13:49:55.968Z,54.70
2019-03-19T13:54:59.675Z,56.10
2019-03-19T14:00:03.761Z,57.30
2019-03-19T14:05:09.056Z,52.50
2019-03-19T14:10:13.190Z,49.80
2019-03-19T14:15:16.992Z,54.30
2019-03-19T14:20:20.823Z,53.60
2019-03-19T14:25:25.583Z,54.40
2019-03-19T14:30:29.276Z,52.60
2019-03-19T14:35:37.599Z,55.00
2019-03-19T14:40:39.620Z,55.70
2019-03-19T14:45:43.311Z,55.00
2019-03-19T14:50:47.003Z,55.40
2019-03-19T14:55:50.788Z,55.80
2019-03-19T15:00:54.491Z,56.00
2019-03-19T15:05:58.190Z,52.20
2019-03-19T15:11:02.145Z,50.50
2019-03-19T15:16:06.787Z,51.80
2019-03-19T15:21:10.501Z,52.10
2019-03-19T15:26:14.215Z,56.00
2019-03-19T15:31:17.956Z,57.80
2019-03-19T15:36:21.935Z,59.30
2019-03-19T15:41:25.703Z,61.50
2019-03-19T15:46:29.419Z,61.20
2019-03-19T15:51:33.519Z,63.70
2019-03-19T15:56:37.208Z,66.70
2019-03-19T16:01:41.364Z,68.40
2019-03-19T16:06:45.377Z,68.50
2019-03-19T16:11:49.167Z,70.10
2019-03-19T16:16:52.963Z,68.80
2019-03-19T16:21:56.924Z,72.00
2019-03-19T16:27:00.688Z,72.80
2019-03-19T16:32:04.471Z,74.90
2019-03-19T16:37:08.440Z,73.40
2019-03-19T16:42:14.238Z,73.50
2019-03-19T16:47:17.946Z,78.00
2019-03-19T16:52:21.651Z,71.30
2019-03-19T16:57:25.454Z,74.10
2019-03-19T17:02:29.226Z,76.70
2019-03-19T17:07:33.536Z,78.70
2019-03-19T17:12:37.259Z,80.80
2019-03-19T17:17:42.158Z,84.50
2019-03-19T17:22:45.974Z,85.00
2019-03-19T17:27:49.842Z,85.20
2019-03-19T17:32:53.756Z,85.40
2019-03-19T17:37:57.908Z,85.70
2019-03-19T17:43:02.701Z,88.10
2019-03-19T17:48:15.626Z,89.30
2019-03-19T17:53:11.926Z,90.10
2019-03-19T17:58:15.636Z,90.10
2019-03-19T18:03:19.394Z,90.70
2019-03-19T18:08:23.120Z,91.20
2019-03-19T18:13:26.848Z,91.40
2019-03-19T18:18:30.646Z,91.80
2019-03-19T18:23:34.384Z,92.10
2019-03-19T18:28:38.282Z,92.80
2019-03-19T18:33:42.146Z,93.80
2019-03-19T18:38:45.951Z,93.70
2019-03-19T18:43:49.934Z,93.80
2019-03-19T18:48:53.659Z,94.20
2019-03-19T18:53:57.371Z,94.50
2019-03-19T18:59:01.343Z,95.00
2019-03-19T19:04:05.264Z,95.20
2019-03-19T19:09:09.585Z,95.30
2019-03-19T19:14:13.318Z,96.00
2019-03-19T19:19:17.025Z,96.30
2019-03-19T19:24:20.756Z,96.60
2019-03-19T19:29:24.462Z,96.70
2019-03-19T19:34:28.175Z,97.10
2019-03-19T19:39:31.917Z,97.20
2019-03-19T19:44:35.635Z,97.20
2019-03-19T19:49:39.917Z,96.80
2019-03-19T19:54:43.656Z,96.70
2019-03-19T19:59:47.374Z,97.10
2019-03-19T20:05:02.344Z,97.40
2019-03-19T20:09:57.472Z,97.40
2019-03-19T20:15:01.192Z,97.50
2019-03-19T20:20:05.856Z,97.50
2019-03-19T20:25:09.967Z,97.70
2019-03-19T20:30:15.844Z,97.70
2019-03-19T20:35:19.651Z,98.60
2019-03-19T20:40:23.441Z,98.60
2019-03-19T20:45:27.168Z,98.70
2019-03-19T20:50:30.913Z,98.70
2019-03-19T20:55:34.924Z,99.00
2019-03-19T21:00:38.647Z,98.80
2019-03-19T21:05:42.387Z,99.10
2019-03-19T21:10:46.212Z,99.30
2019-03-19T21:15:49.952Z,99.30
2019-03-19T21:20:53.668Z,99.20
2019-03-19T21:25:59.466Z,99.40
2019-03-19T21:31:03.393Z,99.50
2019-03-19T21:36:07.216Z,99.40
2019-03-19T21:41:11.299Z,99.40
2019-03-19T21:46:15.023Z,99.60
2019-03-19T21:51:18.731Z,99.50
2019-03-19T21:56:22.453Z,99.70
2019-03-19T22:01:26.159Z,99.60
2019-03-19T22:06:29.879Z,99.90
2019-03-19T22:11:33.578Z,99.90
2019-03-19T22:16:37.287Z,99.90
2019-03-19T22:21:41.008Z,99.90
2019-03-19T22:26:44.997Z,99.90
2019-03-19T22:31:48.742Z,99.90
2019-03-19T22:36:52.708Z,99.90
2019-03-19T22:41:56.432Z,99.90
2019-03-19T22:47:00.223Z,99.90
2019-03-19T22:52:03.952Z,99.90
2019-03-19T22:57:07.675Z,99.90
2019-03-19T23:02:11.495Z,99.90
2019-03-19T23:07:15.195Z,99.90
2019-03-19T23:12:18.939Z,99.90
2019-03-19T23:17:22.754Z,99.90
2019-03-19T23:22:26.499Z,99.90
2019-03-19T23:27:32.939Z,99.90
2019-03-19T23:32:36.658Z,99.90
2019-03-19T23:37:40.390Z,99.90
2019-03-19T23:42:44.361Z,99.90
2019-03-19T23:47:48.303Z,99.90
2019-03-19T23:52:52.095Z,99.90
2019-03-19T23:57:55.813Z,99.90
